sensor_id;sensor_type;location;lat;lon;timestamp;P1;durP1;ratioP1;P2;durP2;ratioP2
22111;SDS011;11222;50.872;4.312;2023-08-06T00:00:19;9.38;;;4.68;;
22111;SDS011;11222;50.872;4.312;2023-08-06T00:02:45;8.75;;;4.28;;
22111;SDS011;11222;50.872;4.312;2023-08-06T00:05:10;8.05;;;4.43;;
22111;SDS011;11222;50.872;4.312;2023-08-06T00:07:36;9.18;;;4.00;;
22111;SDS011;11222;50.872;4.312;2023-08-06T00:10:02;6.65;;;4.68;;
22111;SDS011;11222;50.872;4.312;2023-08-06T00:12:28;6.70;;;4.90;;
22111;SDS011;11222;50.872;4.312;2023-08-06T00:14:53;8.55;;;4.28;;
22111;SDS011;11222;50.872;4.312;2023-08-06T00:17:19;8.95;;;4.50;;
22111;SDS011;11222;50.872;4.312;2023-08-06T00:19:45;7.75;;;4.57;;
22111;SDS011;11222;50.872;4.312;2023-08-06T00:22:10;7.10;;;4.60;;
22111;SDS011;11222;50.872;4.312;2023-08-06T00:24:36;7.10;;;5.03;;
22111;SDS011;11222;50.872;4.312;2023-08-06T00:27:02;8.82;;;5.45;;
22111;SDS011;11222;50.872;4.312;2023-08-06T00:29:28;8.73;;;5.80;;
22111;SDS011;11222;50.872;4.312;2023-08-06T00:31:53;9.07;;;6.03;;
22111;SDS011;11222;50.872;4.312;2023-08-06T00:34:19;12.60;;;6.65;;
22111;SDS011;11222;50.872;4.312;2023-08-06T00:36:45;9.93;;;6.45;;
22111;SDS011;11222;50.872;4.312;2023-08-06T00:39:11;9.90;;;6.30;;
22111;SDS011;11222;50.872;4.312;2023-08-06T00:41:36;10.27;;;6.95;;
22111;SDS011;11222;50.872;4.312;2023-08-06T00:44:02;13.70;;;6.80;;
22111;SDS011;11222;50.872;4.312;2023-08-06T00:46:28;11.10;;;6.35;;
22111;SDS011;11222;50.872;4.312;2023-08-06T00:48:55;12.05;;;6.80;;
22111;SDS011;11222;50.872;4.312;2023-08-06T00:51:21;10.38;;;6.95;;
22111;SDS011;11222;50.872;4.312;2023-08-06T00:53:49;13.00;;;7.78;;
22111;SDS011;11222;50.872;4.312;2023-08-06T00:56:15;10.73;;;7.78;;
22111;SDS011;11222;50.872;4.312;2023-08-06T00:58:41;10.30;;;7.85;;
22111;SDS011;11222;50.872;4.312;2023-08-06T01:01:07;10.98;;;8.43;;
22111;SDS011;11222;50.872;4.312;2023-08-06T01:03:33;13.52;;;9.15;;
22111;SDS011;11222;50.872;4.312;2023-08-06T01:05:58;14.27;;;8.60;;
22111;SDS011;11222;50.872;4.312;2023-08-06T01:11:33;17.05;;;9.80;;
22111;SDS011;11222;50.872;4.312;2023-08-06T01:14:18;17.73;;;10.63;;
22111;SDS011;11222;50.872;4.312;2023-08-06T01:16:51;17.75;;;10.50;;
22111;SDS011;11222;50.872;4.312;2023-08-06T01:19:17;17.98;;;10.85;;
22111;SDS011;11222;50.872;4.312;2023-08-06T01:21:44;16.83;;;9.98;;
22111;SDS011;11222;50.872;4.312;2023-08-06T01:24:10;18.88;;;10.13;;
22111;SDS011;11222;50.872;4.312;2023-08-06T01:26:41;15.35;;;9.65;;
22111;SDS011;11222;50.872;4.312;2023-08-06T01:29:24;15.65;;;9.88;;
22111;SDS011;11222;50.872;4.312;2023-08-06T01:32:07;17.45;;;10.05;;
22111;SDS011;11222;50.872;4.312;2023-08-06T01:34:34;14.60;;;9.95;;
22111;SDS011;11222;50.872;4.312;2023-08-06T01:37:01;21.10;;;10.13;;
22111;SDS011;11222;50.872;4.312;2023-08-06T01:39:27;15.00;;;10.05;;
22111;SDS011;11222;50.872;4.312;2023-08-06T01:41:53;14.43;;;9.60;;
22111;SDS011;11222;50.872;4.312;2023-08-06T01:44:18;17.15;;;9.35;;
22111;SDS011;11222;50.872;4.312;2023-08-06T01:46:44;16.52;;;9.52;;
22111;SDS011;11222;50.872;4.312;2023-08-06T01:49:09;15.57;;;8.90;;
22111;SDS011;11222;50.872;4.312;2023-08-06T01:51:35;14.38;;;8.07;;
22111;SDS011;11222;50.872;4.312;2023-08-06T01:54:01;15.90;;;8.68;;
22111;SDS011;11222;50.872;4.312;2023-08-06T01:56:27;11.57;;;8.18;;
22111;SDS011;11222;50.872;4.312;2023-08-06T01:58:52;14.30;;;7.95;;
22111;SDS011;11222;50.872;4.312;2023-08-06T02:01:18;14.15;;;8.23;;
22111;SDS011;11222;50.872;4.312;2023-08-06T02:03:43;15.23;;;7.65;;
22111;SDS011;11222;50.872;4.312;2023-08-06T02:06:09;10.73;;;7.07;;
22111;SDS011;11222;50.872;4.312;2023-08-06T02:08:35;10.45;;;6.43;;
22111;SDS011;11222;50.872;4.312;2023-08-06T02:11:00;11.35;;;5.35;;
22111;SDS011;11222;50.872;4.312;2023-08-06T02:13:27;13.57;;;5.00;;
22111;SDS011;11222;50.872;4.312;2023-08-06T02:15:53;8.52;;;4.70;;
22111;SDS011;11222;50.872;4.312;2023-08-06T02:18:18;10.55;;;4.28;;
22111;SDS011;11222;50.872;4.312;2023-08-06T02:20:44;9.80;;;4.28;;
22111;SDS011;11222;50.872;4.312;2023-08-06T02:23:23;12.18;;;3.83;;
22111;SDS011;11222;50.872;4.312;2023-08-06T02:25:56;8.35;;;3.65;;
22111;SDS011;11222;50.872;4.312;2023-08-06T02:28:29;10.75;;;3.60;;
22111;SDS011;11222;50.872;4.312;2023-08-06T02:30:55;9.68;;;3.88;;
22111;SDS011;11222;50.872;4.312;2023-08-06T02:33:21;9.68;;;3.22;;
22111;SDS011;11222;50.872;4.312;2023-08-06T02:35:46;11.95;;;3.70;;
22111;SDS011;11222;50.872;4.312;2023-08-06T02:38:12;9.80;;;3.58;;
22111;SDS011;11222;50.872;4.312;2023-08-06T02:40:44;11.70;;;3.65;;
22111;SDS011;11222;50.872;4.312;2023-08-06T02:43:11;13.05;;;3.50;;
22111;SDS011;11222;50.872;4.312;2023-08-06T02:45:36;11.57;;;3.50;;
22111;SDS011;11222;50.872;4.312;2023-08-06T02:48:02;9.50;;;3.83;;
22111;SDS011;11222;50.872;4.312;2023-08-06T02:50:28;11.57;;;4.53;;
22111;SDS011;11222;50.872;4.312;2023-08-06T02:52:54;11.77;;;4.22;;
22111;SDS011;11222;50.872;4.312;2023-08-06T02:55:19;10.57;;;4.07;;
22111;SDS011;11222;50.872;4.312;2023-08-06T02:57:45;13.02;;;4.90;;
22111;SDS011;11222;50.872;4.312;2023-08-06T03:00:10;11.68;;;5.95;;
22111;SDS011;11222;50.872;4.312;2023-08-06T03:02:36;15.02;;;5.95;;
22111;SDS011;11222;50.872;4.312;2023-08-06T03:05:02;11.07;;;5.88;;
22111;SDS011;11222;50.872;4.312;2023-08-06T03:07:28;14.40;;;7.45;;
22111;SDS011;11222;50.872;4.312;2023-08-06T03:09:54;12.95;;;8.02;;
22111;SDS011;11222;50.872;4.312;2023-08-06T03:12:20;16.85;;;9.50;;
22111;SDS011;11222;50.872;4.312;2023-08-06T03:14:45;23.52;;;10.93;;
22111;SDS011;11222;50.872;4.312;2023-08-06T03:17:12;20.25;;;11.07;;
22111;SDS011;11222;50.872;4.312;2023-08-06T03:19:37;25.35;;;13.10;;
22111;SDS011;11222;50.872;4.312;2023-08-06T03:22:03;24.60;;;14.05;;
22111;SDS011;11222;50.872;4.312;2023-08-06T03:24:29;24.77;;;14.68;;
22111;SDS011;11222;50.872;4.312;2023-08-06T03:26:54;24.15;;;14.63;;
22111;SDS011;11222;50.872;4.312;2023-08-06T03:29:20;22.40;;;13.65;;
22111;SDS011;11222;50.872;4.312;2023-08-06T03:31:47;17.33;;;11.93;;
22111;SDS011;11222;50.872;4.312;2023-08-06T03:34:12;12.88;;;9.07;;
22111;SDS011;11222;50.872;4.312;2023-08-06T03:36:38;12.73;;;8.50;;
22111;SDS011;11222;50.872;4.312;2023-08-06T03:39:04;11.50;;;7.22;;
22111;SDS011;11222;50.872;4.312;2023-08-06T03:41:29;6.38;;;4.55;;
22111;SDS011;11222;50.872;4.312;2023-08-06T03:43:55;7.32;;;5.38;;
22111;SDS011;11222;50.872;4.312;2023-08-06T03:46:21;5.05;;;4.45;;
22111;SDS011;11222;50.872;4.312;2023-08-06T03:48:46;6.20;;;2.85;;
22111;SDS011;11222;50.872;4.312;2023-08-06T03:51:12;3.35;;;2.33;;
22111;SDS011;11222;50.872;4.312;2023-08-06T03:53:38;3.17;;;2.35;;
22111;SDS011;11222;50.872;4.312;2023-08-06T03:56:03;8.00;;;2.60;;
22111;SDS011;11222;50.872;4.312;2023-08-06T03:58:29;5.20;;;2.90;;
22111;SDS011;11222;50.872;4.312;2023-08-06T04:01:02;3.80;;;2.75;;
22111;SDS011;11222;50.872;4.312;2023-08-06T04:03:28;3.22;;;2.80;;
22111;SDS011;11222;50.872;4.312;2023-08-06T04:05:54;5.50;;;2.67;;
22111;SDS011;11222;50.872;4.312;2023-08-06T04:08:19;4.60;;;2.38;;
22111;SDS011;11222;50.872;4.312;2023-08-06T04:10:45;4.03;;;2.45;;
22111;SDS011;11222;50.872;4.312;2023-08-06T04:13:14;3.72;;;2.50;;
22111;SDS011;11222;50.872;4.312;2023-08-06T04:15:39;4.43;;;2.90;;
22111;SDS011;11222;50.872;4.312;2023-08-06T04:18:05;6.22;;;3.03;;
22111;SDS011;11222;50.872;4.312;2023-08-06T04:20:30;5.13;;;3.22;;
22111;SDS011;11222;50.872;4.312;2023-08-06T04:22:56;6.35;;;3.20;;
22111;SDS011;11222;50.872;4.312;2023-08-06T04:25:22;7.50;;;3.80;;
22111;SDS011;11222;50.872;4.312;2023-08-06T04:27:48;6.05;;;4.25;;
22111;SDS011;11222;50.872;4.312;2023-08-06T04:30:14;6.30;;;4.15;;
22111;SDS011;11222;50.872;4.312;2023-08-06T04:32:40;8.55;;;4.70;;
22111;SDS011;11222;50.872;4.312;2023-08-06T04:35:06;6.95;;;4.68;;
22111;SDS011;11222;50.872;4.312;2023-08-06T04:37:32;7.30;;;5.18;;
22111;SDS011;11222;50.872;4.312;2023-08-06T04:39:57;10.27;;;5.50;;
22111;SDS011;11222;50.872;4.312;2023-08-06T04:42:23;8.40;;;5.07;;
22111;SDS011;11222;50.872;4.312;2023-08-06T04:44:49;7.97;;;5.40;;
22111;SDS011;11222;50.872;4.312;2023-08-06T04:47:15;11.00;;;6.53;;
22111;SDS011;11222;50.872;4.312;2023-08-06T04:49:40;13.00;;;7.70;;
22111;SDS011;11222;50.872;4.312;2023-08-06T04:52:06;14.90;;;7.68;;
22111;SDS011;11222;50.872;4.312;2023-08-06T04:54:32;9.93;;;6.95;;
22111;SDS011;11222;50.872;4.312;2023-08-06T04:56:57;13.02;;;7.55;;
22111;SDS011;11222;50.872;4.312;2023-08-06T04:59:23;11.82;;;7.35;;
22111;SDS011;11222;50.872;4.312;2023-08-06T05:01:48;8.75;;;6.18;;
22111;SDS011;11222;50.872;4.312;2023-08-06T05:04:14;11.75;;;6.78;;
22111;SDS011;11222;50.872;4.312;2023-08-06T05:06:40;11.95;;;6.82;;
22111;SDS011;11222;50.872;4.312;2023-08-06T05:09:06;14.18;;;6.78;;
22111;SDS011;11222;50.872;4.312;2023-08-06T05:11:32;13.45;;;6.82;;
22111;SDS011;11222;50.872;4.312;2023-08-06T05:13:57;11.93;;;6.35;;
22111;SDS011;11222;50.872;4.312;2023-08-06T05:16:23;12.98;;;6.75;;
22111;SDS011;11222;50.872;4.312;2023-08-06T05:18:49;10.18;;;6.07;;
22111;SDS011;11222;50.872;4.312;2023-08-06T05:21:14;13.68;;;6.18;;
22111;SDS011;11222;50.872;4.312;2023-08-06T05:23:41;13.75;;;6.95;;
22111;SDS011;11222;50.872;4.312;2023-08-06T05:26:07;14.68;;;6.75;;
22111;SDS011;11222;50.872;4.312;2023-08-06T05:28:34;10.57;;;6.28;;
22111;SDS011;11222;50.872;4.312;2023-08-06T05:31:02;10.55;;;6.05;;
22111;SDS011;11222;50.872;4.312;2023-08-06T05:33:29;12.10;;;5.85;;
22111;SDS011;11222;50.872;4.312;2023-08-06T05:35:57;12.73;;;5.60;;
22111;SDS011;11222;50.872;4.312;2023-08-06T05:38:22;11.20;;;5.43;;
22111;SDS011;11222;50.872;4.312;2023-08-06T05:40:48;13.30;;;4.88;;
22111;SDS011;11222;50.872;4.312;2023-08-06T05:43:14;13.95;;;5.03;;
22111;SDS011;11222;50.872;4.312;2023-08-06T05:45:43;15.48;;;5.30;;
22111;SDS011;11222;50.872;4.312;2023-08-06T05:48:10;15.57;;;5.90;;
22111;SDS011;11222;50.872;4.312;2023-08-06T05:50:36;14.25;;;5.55;;
22111;SDS011;11222;50.872;4.312;2023-08-06T05:53:01;11.73;;;6.15;;
22111;SDS011;11222;50.872;4.312;2023-08-06T05:55:27;16.20;;;6.05;;
22111;SDS011;11222;50.872;4.312;2023-08-06T05:57:53;18.15;;;6.22;;
22111;SDS011;11222;50.872;4.312;2023-08-06T06:00:19;13.88;;;6.07;;
22111;SDS011;11222;50.872;4.312;2023-08-06T06:02:45;19.20;;;7.07;;
22111;SDS011;11222;50.872;4.312;2023-08-06T06:05:11;12.95;;;6.03;;
22111;SDS011;11222;50.872;4.312;2023-08-06T06:07:37;16.48;;;6.38;;
22111;SDS011;11222;50.872;4.312;2023-08-06T06:10:02;19.75;;;6.60;;
22111;SDS011;11222;50.872;4.312;2023-08-06T06:12:28;13.05;;;6.00;;
22111;SDS011;11222;50.872;4.312;2023-08-06T06:14:54;12.73;;;5.68;;
22111;SDS011;11222;50.872;4.312;2023-08-06T06:17:19;13.35;;;5.63;;
22111;SDS011;11222;50.872;4.312;2023-08-06T06:19:45;11.77;;;5.40;;
22111;SDS011;11222;50.872;4.312;2023-08-06T06:22:11;13.90;;;5.40;;
22111;SDS011;11222;50.872;4.312;2023-08-06T06:24:37;11.15;;;5.35;;
22111;SDS011;11222;50.872;4.312;2023-08-06T06:27:03;11.80;;;5.00;;
22111;SDS011;11222;50.872;4.312;2023-08-06T06:29:29;14.90;;;5.72;;
22111;SDS011;11222;50.872;4.312;2023-08-06T06:31:54;13.80;;;4.63;;
22111;SDS011;11222;50.872;4.312;2023-08-06T06:34:20;12.25;;;5.07;;
22111;SDS011;11222;50.872;4.312;2023-08-06T06:36:47;15.45;;;5.20;;
22111;SDS011;11222;50.872;4.312;2023-08-06T06:39:12;8.30;;;4.47;;
22111;SDS011;11222;50.872;4.312;2023-08-06T06:41:38;11.57;;;5.57;;
22111;SDS011;11222;50.872;4.312;2023-08-06T06:44:05;9.00;;;5.10;;
22111;SDS011;11222;50.872;4.312;2023-08-06T06:46:31;12.82;;;4.68;;
22111;SDS011;11222;50.872;4.312;2023-08-06T06:48:56;11.40;;;4.80;;
22111;SDS011;11222;50.872;4.312;2023-08-06T06:51:22;12.60;;;4.70;;
22111;SDS011;11222;50.872;4.312;2023-08-06T06:53:47;13.25;;;4.30;;
22111;SDS011;11222;50.872;4.312;2023-08-06T06:56:13;11.18;;;4.18;;
22111;SDS011;11222;50.872;4.312;2023-08-06T06:58:39;7.20;;;4.30;;
22111;SDS011;11222;50.872;4.312;2023-08-06T07:01:06;10.18;;;3.95;;
22111;SDS011;11222;50.872;4.312;2023-08-06T07:03:32;11.52;;;3.30;;
22111;SDS011;11222;50.872;4.312;2023-08-06T07:05:58;8.77;;;3.17;;
22111;SDS011;11222;50.872;4.312;2023-08-06T07:08:24;6.10;;;3.22;;
22111;SDS011;11222;50.872;4.312;2023-08-06T07:10:50;10.18;;;2.78;;
22111;SDS011;11222;50.872;4.312;2023-08-06T07:13:15;11.60;;;2.97;;
22111;SDS011;11222;50.872;4.312;2023-08-06T07:15:41;10.43;;;2.95;;
22111;SDS011;11222;50.872;4.312;2023-08-06T07:18:07;9.30;;;2.65;;
22111;SDS011;11222;50.872;4.312;2023-08-06T07:20:33;11.55;;;2.20;;
22111;SDS011;11222;50.872;4.312;2023-08-06T07:22:59;10.25;;;2.78;;
22111;SDS011;11222;50.872;4.312;2023-08-06T07:25:25;6.43;;;2.10;;
22111;SDS011;11222;50.872;4.312;2023-08-06T07:27:51;8.40;;;2.20;;
22111;SDS011;11222;50.872;4.312;2023-08-06T07:30:16;7.93;;;2.05;;
22111;SDS011;11222;50.872;4.312;2023-08-06T07:32:42;6.28;;;2.10;;
22111;SDS011;11222;50.872;4.312;2023-08-06T07:35:08;9.70;;;2.50;;
22111;SDS011;11222;50.872;4.312;2023-08-06T07:37:37;12.25;;;2.97;;
22111;SDS011;11222;50.872;4.312;2023-08-06T07:40:04;5.78;;;1.98;;
22111;SDS011;11222;50.872;4.312;2023-08-06T07:42:30;6.65;;;2.20;;
22111;SDS011;11222;50.872;4.312;2023-08-06T07:44:55;8.13;;;2.40;;
22111;SDS011;11222;50.872;4.312;2023-08-06T07:47:23;9.15;;;2.13;;
22111;SDS011;11222;50.872;4.312;2023-08-06T07:49:48;8.85;;;2.55;;
22111;SDS011;11222;50.872;4.312;2023-08-06T07:52:14;9.38;;;2.25;;
22111;SDS011;11222;50.872;4.312;2023-08-06T07:54:40;7.07;;;2.13;;
22111;SDS011;11222;50.872;4.312;2023-08-06T07:57:05;9.65;;;2.47;;
22111;SDS011;11222;50.872;4.312;2023-08-06T07:59:31;5.97;;;2.13;;
22111;SDS011;11222;50.872;4.312;2023-08-06T08:01:57;9.55;;;2.63;;
22111;SDS011;11222;50.872;4.312;2023-08-06T08:04:23;8.68;;;2.78;;
22111;SDS011;11222;50.872;4.312;2023-08-06T08:06:49;7.32;;;2.42;;
22111;SDS011;11222;50.872;4.312;2023-08-06T08:09:15;5.35;;;2.03;;
22111;SDS011;11222;50.872;4.312;2023-08-06T08:11:41;7.72;;;2.58;;
22111;SDS011;11222;50.872;4.312;2023-08-06T08:14:07;6.88;;;2.50;;
22111;SDS011;11222;50.872;4.312;2023-08-06T08:16:32;9.05;;;2.25;;
22111;SDS011;11222;50.872;4.312;2023-08-06T08:18:58;5.45;;;2.40;;
22111;SDS011;11222;50.872;4.312;2023-08-06T08:21:24;6.72;;;2.45;;
22111;SDS011;11222;50.872;4.312;2023-08-06T08:23:50;8.02;;;2.80;;
22111;SDS011;11222;50.872;4.312;2023-08-06T08:26:16;8.40;;;2.60;;
22111;SDS011;11222;50.872;4.312;2023-08-06T08:28:42;9.98;;;2.45;;
22111;SDS011;11222;50.872;4.312;2023-08-06T08:31:08;10.00;;;2.72;;
22111;SDS011;11222;50.872;4.312;2023-08-06T08:33:34;6.57;;;2.30;;
22111;SDS011;11222;50.872;4.312;2023-08-06T08:36:00;8.75;;;2.50;;
22111;SDS011;11222;50.872;4.312;2023-08-06T08:38:26;9.27;;;2.95;;
22111;SDS011;11222;50.872;4.312;2023-08-06T08:40:51;11.20;;;2.90;;
22111;SDS011;11222;50.872;4.312;2023-08-06T08:43:22;10.32;;;2.72;;
22111;SDS011;11222;50.872;4.312;2023-08-06T08:45:52;11.07;;;2.70;;
22111;SDS011;11222;50.872;4.312;2023-08-06T08:48:23;8.88;;;2.97;;
22111;SDS011;11222;50.872;4.312;2023-08-06T08:50:50;9.98;;;2.80;;
22111;SDS011;11222;50.872;4.312;2023-08-06T08:53:16;10.13;;;2.83;;
22111;SDS011;11222;50.872;4.312;2023-08-06T08:55:43;7.20;;;2.55;;
22111;SDS011;11222;50.872;4.312;2023-08-06T08:58:14;10.75;;;2.60;;
22111;SDS011;11222;50.872;4.312;2023-08-06T09:00:45;8.07;;;2.42;;
22111;SDS011;11222;50.872;4.312;2023-08-06T09:03:12;10.35;;;2.40;;
22111;SDS011;11222;50.872;4.312;2023-08-06T09:05:38;10.88;;;2.28;;
22111;SDS011;11222;50.872;4.312;2023-08-06T09:08:11;8.95;;;2.88;;
22111;SDS011;11222;50.872;4.312;2023-08-06T09:10:40;8.02;;;2.45;;
22111;SDS011;11222;50.872;4.312;2023-08-06T09:13:08;9.77;;;2.47;;
22111;SDS011;11222;50.872;4.312;2023-08-06T09:15:33;7.32;;;2.22;;
22111;SDS011;11222;50.872;4.312;2023-08-06T09:17:59;7.78;;;2.60;;
22111;SDS011;11222;50.872;4.312;2023-08-06T09:20:34;11.70;;;2.70;;
22111;SDS011;11222;50.872;4.312;2023-08-06T09:23:06;7.72;;;2.63;;
22111;SDS011;11222;50.872;4.312;2023-08-06T09:25:39;12.27;;;2.80;;
22111;SDS011;11222;50.872;4.312;2023-08-06T09:28:07;6.28;;;2.90;;
22111;SDS011;11222;50.872;4.312;2023-08-06T09:30:35;11.07;;;2.60;;
22111;SDS011;11222;50.872;4.312;2023-08-06T09:33:01;9.50;;;2.90;;
22111;SDS011;11222;50.872;4.312;2023-08-06T09:35:28;10.07;;;2.95;;
22111;SDS011;11222;50.872;4.312;2023-08-06T09:37:55;9.55;;;2.40;;
22111;SDS011;11222;50.872;4.312;2023-08-06T09:42:51;8.80;;;2.85;;
22111;SDS011;11222;50.872;4.312;2023-08-06T09:45:17;13.05;;;3.33;;
22111;SDS011;11222;50.872;4.312;2023-08-06T09:47:43;11.32;;;3.80;;
22111;SDS011;11222;50.872;4.312;2023-08-06T09:50:16;12.13;;;3.63;;
22111;SDS011;11222;50.872;4.312;2023-08-06T09:52:46;10.27;;;2.70;;
22111;SDS011;11222;50.872;4.312;2023-08-06T09:55:13;11.05;;;3.60;;
22111;SDS011;11222;50.872;4.312;2023-08-06T09:57:42;8.52;;;2.67;;
22111;SDS011;11222;50.872;4.312;2023-08-06T10:00:08;13.35;;;3.47;;
22111;SDS011;11222;50.872;4.312;2023-08-06T10:02:39;10.30;;;2.65;;
22111;SDS011;11222;50.872;4.312;2023-08-06T10:05:06;8.15;;;2.72;;
22111;SDS011;11222;50.872;4.312;2023-08-06T10:07:33;6.57;;;2.30;;
22111;SDS011;11222;50.872;4.312;2023-08-06T10:09:59;9.15;;;2.70;;
22111;SDS011;11222;50.872;4.312;2023-08-06T10:12:25;11.75;;;2.95;;
22111;SDS011;11222;50.872;4.312;2023-08-06T10:14:55;10.02;;;2.47;;
22111;SDS011;11222;50.872;4.312;2023-08-06T10:17:24;7.35;;;2.55;;
22111;SDS011;11222;50.872;4.312;2023-08-06T10:19:50;10.15;;;2.50;;
22111;SDS011;11222;50.872;4.312;2023-08-06T10:22:19;7.20;;;2.33;;
22111;SDS011;11222;50.872;4.312;2023-08-06T10:24:50;12.00;;;2.67;;
22111;SDS011;11222;50.872;4.312;2023-08-06T10:32:50;8.00;;;2.30;;
22111;SDS011;11222;50.872;4.312;2023-08-06T10:35:35;6.40;;;2.22;;
22111;SDS011;11222;50.872;4.312;2023-08-06T10:38:11;8.05;;;2.95;;
22111;SDS011;11222;50.872;4.312;2023-08-06T10:40:41;7.68;;;2.60;;
22111;SDS011;11222;50.872;4.312;2023-08-06T10:45:52;7.70;;;2.80;;
22111;SDS011;11222;50.872;4.312;2023-08-06T10:51:10;12.45;;;3.05;;
22111;SDS011;11222;50.872;4.312;2023-08-06T10:53:44;11.57;;;3.00;;
22111;SDS011;11222;50.872;4.312;2023-08-06T10:56:18;13.63;;;3.83;;
22111;SDS011;11222;50.872;4.312;2023-08-06T10:58:49;8.00;;;2.78;;
22111;SDS011;11222;50.872;4.312;2023-08-06T11:01:16;11.43;;;2.90;;
22111;SDS011;11222;50.872;4.312;2023-08-06T11:03:43;12.68;;;3.38;;
22111;SDS011;11222;50.872;4.312;2023-08-06T11:06:09;9.77;;;3.17;;
22111;SDS011;11222;50.872;4.312;2023-08-06T11:08:36;12.77;;;3.90;;
22111;SDS011;11222;50.872;4.312;2023-08-06T11:11:09;10.45;;;3.10;;
22111;SDS011;11222;50.872;4.312;2023-08-06T11:13:39;9.20;;;2.72;;
22111;SDS011;11222;50.872;4.312;2023-08-06T11:16:13;6.57;;;2.70;;
22111;SDS011;11222;50.872;4.312;2023-08-06T11:18:43;8.75;;;2.67;;
22111;SDS011;11222;50.872;4.312;2023-08-06T11:21:09;8.68;;;2.70;;
22111;SDS011;11222;50.872;4.312;2023-08-06T11:23:35;6.88;;;2.63;;
22111;SDS011;11222;50.872;4.312;2023-08-06T11:26:01;7.75;;;3.15;;
22111;SDS011;11222;50.872;4.312;2023-08-06T11:28:28;8.68;;;3.60;;
22111;SDS011;11222;50.872;4.312;2023-08-06T11:30:53;8.98;;;2.88;;
22111;SDS011;11222;50.872;4.312;2023-08-06T11:33:22;8.68;;;2.53;;
22111;SDS011;11222;50.872;4.312;2023-08-06T11:35:50;7.82;;;2.70;;
22111;SDS011;11222;50.872;4.312;2023-08-06T11:38:16;6.88;;;2.35;;
22111;SDS011;11222;50.872;4.312;2023-08-06T11:40:44;7.43;;;2.35;;
22111;SDS011;11222;50.872;4.312;2023-08-06T11:43:10;6.38;;;2.35;;
22111;SDS011;11222;50.872;4.312;2023-08-06T11:45:40;7.13;;;2.50;;
22111;SDS011;11222;50.872;4.312;2023-08-06T11:48:06;5.53;;;2.17;;
22111;SDS011;11222;50.872;4.312;2023-08-06T11:50:36;6.00;;;2.33;;
22111;SDS011;11222;50.872;4.312;2023-08-06T11:53:03;10.05;;;2.67;;
22111;SDS011;11222;50.872;4.312;2023-08-06T11:55:30;7.60;;;2.45;;
22111;SDS011;11222;50.872;4.312;2023-08-06T11:57:56;19.38;;;3.10;;
22111;SDS011;11222;50.872;4.312;2023-08-06T12:00:23;6.38;;;2.05;;
22111;SDS011;11222;50.872;4.312;2023-08-06T12:02:50;8.35;;;2.47;;
22111;SDS011;11222;50.872;4.312;2023-08-06T12:05:28;6.88;;;2.40;;
22111;SDS011;11222;50.872;4.312;2023-08-06T12:07:56;8.48;;;2.25;;
22111;SDS011;11222;50.872;4.312;2023-08-06T12:10:24;6.63;;;1.90;;
22111;SDS011;11222;50.872;4.312;2023-08-06T12:12:50;10.55;;;2.80;;
22111;SDS011;11222;50.872;4.312;2023-08-06T12:15:16;11.27;;;2.90;;
22111;SDS011;11222;50.872;4.312;2023-08-06T12:17:42;8.65;;;2.50;;
22111;SDS011;11222;50.872;4.312;2023-08-06T12:20:09;10.32;;;3.17;;
22111;SDS011;11222;50.872;4.312;2023-08-06T12:22:36;10.10;;;2.92;;
22111;SDS011;11222;50.872;4.312;2023-08-06T12:25:12;11.25;;;3.10;;
22111;SDS011;11222;50.872;4.312;2023-08-06T12:27:39;6.38;;;3.03;;
22111;SDS011;11222;50.872;4.312;2023-08-06T12:30:10;8.50;;;3.17;;
22111;SDS011;11222;50.872;4.312;2023-08-06T12:32:36;8.15;;;2.67;;
22111;SDS011;11222;50.872;4.312;2023-08-06T12:35:05;9.63;;;2.55;;
22111;SDS011;11222;50.872;4.312;2023-08-06T12:37:32;8.63;;;2.70;;
22111;SDS011;11222;50.872;4.312;2023-08-06T12:39:58;5.45;;;2.10;;
22111;SDS011;11222;50.872;4.312;2023-08-06T12:42:24;5.50;;;2.50;;
22111;SDS011;11222;50.872;4.312;2023-08-06T12:44:50;10.38;;;2.65;;
22111;SDS011;11222;50.872;4.312;2023-08-06T12:47:16;9.05;;;2.42;;
22111;SDS011;11222;50.872;4.312;2023-08-06T12:49:43;9.15;;;2.47;;
22111;SDS011;11222;50.872;4.312;2023-08-06T12:52:09;8.60;;;2.50;;
22111;SDS011;11222;50.872;4.312;2023-08-06T12:54:34;7.22;;;2.50;;
22111;SDS011;11222;50.872;4.312;2023-08-06T12:57:04;9.02;;;2.70;;
22111;SDS011;11222;50.872;4.312;2023-08-06T12:59:30;8.13;;;2.67;;
22111;SDS011;11222;50.872;4.312;2023-08-06T13:01:56;8.40;;;2.78;;
22111;SDS011;11222;50.872;4.312;2023-08-06T13:04:22;7.18;;;2.65;;
22111;SDS011;11222;50.872;4.312;2023-08-06T13:06:47;7.75;;;2.17;;
22111;SDS011;11222;50.872;4.312;2023-08-06T13:09:13;10.13;;;2.90;;
22111;SDS011;11222;50.872;4.312;2023-08-06T13:11:40;5.28;;;2.33;;
22111;SDS011;11222;50.872;4.312;2023-08-06T13:14:09;9.57;;;2.83;;
22111;SDS011;11222;50.872;4.312;2023-08-06T13:16:36;7.30;;;2.50;;
22111;SDS011;11222;50.872;4.312;2023-08-06T13:19:04;8.88;;;2.42;;
22111;SDS011;11222;50.872;4.312;2023-08-06T13:21:34;12.93;;;2.97;;
22111;SDS011;11222;50.872;4.312;2023-08-06T13:24:20;11.88;;;3.20;;
22111;SDS011;11222;50.872;4.312;2023-08-06T13:26:45;8.73;;;2.95;;
22111;SDS011;11222;50.872;4.312;2023-08-06T13:29:11;9.85;;;3.05;;
22111;SDS011;11222;50.872;4.312;2023-08-06T13:31:37;8.85;;;2.92;;
22111;SDS011;11222;50.872;4.312;2023-08-06T13:34:03;9.80;;;2.90;;
22111;SDS011;11222;50.872;4.312;2023-08-06T13:36:29;10.98;;;3.53;;
22111;SDS011;11222;50.872;4.312;2023-08-06T13:38:55;10.95;;;2.97;;
22111;SDS011;11222;50.872;4.312;2023-08-06T13:41:21;9.40;;;2.90;;
22111;SDS011;11222;50.872;4.312;2023-08-06T13:43:47;7.75;;;2.80;;
22111;SDS011;11222;50.872;4.312;2023-08-06T13:46:12;9.65;;;3.05;;
22111;SDS011;11222;50.872;4.312;2023-08-06T13:48:41;11.20;;;2.85;;
22111;SDS011;11222;50.872;4.312;2023-08-06T13:51:08;10.10;;;2.88;;
22111;SDS011;11222;50.872;4.312;2023-08-06T13:53:34;7.55;;;2.60;;
22111;SDS011;11222;50.872;4.312;2023-08-06T13:56:00;6.55;;;2.30;;
22111;SDS011;11222;50.872;4.312;2023-08-06T13:58:25;8.30;;;2.53;;
22111;SDS011;11222;50.872;4.312;2023-08-06T14:00:52;4.30;;;2.10;;
22111;SDS011;11222;50.872;4.312;2023-08-06T14:03:19;5.80;;;2.00;;
22111;SDS011;11222;50.872;4.312;2023-08-06T14:05:45;7.53;;;2.35;;
22111;SDS011;11222;50.872;4.312;2023-08-06T14:08:11;7.72;;;2.22;;
22111;SDS011;11222;50.872;4.312;2023-08-06T14:10:36;10.48;;;2.72;;
22111;SDS011;11222;50.872;4.312;2023-08-06T14:13:02;9.40;;;2.10;;
22111;SDS011;11222;50.872;4.312;2023-08-06T14:15:28;5.03;;;2.10;;
22111;SDS011;11222;50.872;4.312;2023-08-06T14:17:54;5.63;;;2.25;;
22111;SDS011;11222;50.872;4.312;2023-08-06T14:20:19;8.27;;;2.50;;
22111;SDS011;11222;50.872;4.312;2023-08-06T14:22:45;8.02;;;2.58;;
22111;SDS011;11222;50.872;4.312;2023-08-06T14:25:10;6.78;;;2.20;;
22111;SDS011;11222;50.872;4.312;2023-08-06T14:27:36;6.88;;;2.30;;
22111;SDS011;11222;50.872;4.312;2023-08-06T14:30:04;7.93;;;2.50;;
22111;SDS011;11222;50.872;4.312;2023-08-06T14:32:31;7.72;;;2.40;;
22111;SDS011;11222;50.872;4.312;2023-08-06T14:34:57;8.65;;;2.83;;
22111;SDS011;11222;50.872;4.312;2023-08-06T14:37:23;8.25;;;2.65;;
22111;SDS011;11222;50.872;4.312;2023-08-06T14:39:49;8.82;;;2.63;;
22111;SDS011;11222;50.872;4.312;2023-08-06T14:42:15;9.68;;;2.70;;
22111;SDS011;11222;50.872;4.312;2023-08-06T14:44:41;9.75;;;2.97;;
22111;SDS011;11222;50.872;4.312;2023-08-06T14:47:07;9.75;;;3.10;;
22111;SDS011;11222;50.872;4.312;2023-08-06T14:49:32;8.18;;;2.75;;
22111;SDS011;11222;50.872;4.312;2023-08-06T14:51:58;12.07;;;3.08;;
22111;SDS011;11222;50.872;4.312;2023-08-06T14:54:25;9.35;;;2.95;;